Главная страница
METAR-TAF:

METAR-TAF

Аэропорты :

Тортола, Британские Виргинские острова

широта: 18-27N, долгота: 064-32W, высота над уровнем моря: 4 м

Текущие метеонаблюдения

Эта сводка был подготовлена 17 минут назад, в 12:00 UTC
Ветер 6 Узел от восточный
Температура 30°C
Влажность 70%
Давление 1015 hPa
Видимость: 16.1 км
Отдельные облака на высоте 1900 фута

METAR: TUPJ 261200Z 10006KT 10SM SCT019 30/24 A2997 RMK Q1015

Время: 08:17 (12:17 UTC)

Прогноз

Эта сводка был подготовлена 1 час и 17 минут назад, в 11:00 UTC
Прогноз действительный с 26-го 12 UTC до 27-го 12 UTC
Ветер 13 Узел от восточно-северо-восточный
Видимость 10 км и более
Отдельные облака на высоте 2000 фута
Вероятность 40% :
временами
С 26-го 12 UTC до 26-го 18 UTC
ливневые дожди
Вероятность 40% :
временами
С 27-го 02 UTC до 27-го 10 UTC
ливневые дожди

TAF: TUPJ 261100Z 2612/2712 07013KT 9999 SCT020 PROB40 TEMPO 2612/2618 SHRA PROB40 TEMPO 2702/2710 SHRA

Метеонаблюдения и прогнозы для более 4000 аэропортов (сводки METAR и TAF).

Имеющиеся станции представлены на карте желтыми и красными точками.

Чтобы увидеть название станции, наведите на нее мышь.

Затем щелкните, чтобы увидеть метеонаблюдения и метеопрогнозы.

Управление картой: чтобы увеличить масштаб, щелкните зеленые кнопки с черным крестиком; чтобы уменьшить масштаб, щелкните зеленую кнопку с тире; для просмотра соседних карт щелкайте зеленые стрелки.


METAR-TAF: